Time;durP1;ratioP1;P1;durP2;ratioP2;P2;SDS_P1;SDS_P2;PMS_P1;PMS_P2;Temp;Humidity;BMP_temperature;BMP_pressure;BME280_temperature;BME280_humidity;BME280_pressure;Samples;Min_cycle;Max_cycle;Signal;HPM_P1;HPM_P2
2022/04/22 00:00:37;;;;;;;26.00;21.77;;;;;;;8.01;100.00;99992.19;5072711;28;20177;-71
2022/04/22 00:03:04;;;;;;;30.57;20.97;;;;;;;8.07;100.00;99979.25;5073064;28;20266;-76
2022/04/22 00:05:30;;;;;;;24.87;19.80;;;;;;;8.09;100.00;99973.50;5072504;28;20196;-74
2022/04/22 00:07:55;;;;;;;26.63;20.40;;;;;;;8.06;100.00;99973.00;5072682;28;20163;-71
2022/04/22 00:10:21;;;;;;;23.17;20.63;;;;;;;8.05;100.00;99965.97;5072977;28;20174;-73
2022/04/22 00:12:47;;;;;;;28.07;21.57;;;;;;;8.04;100.00;99966.28;5073314;28;20282;-73
2022/04/22 00:15:13;;;;;;;27.90;21.73;;;;;;;8.06;100.00;99956.69;5072576;28;20178;-72
2022/04/22 00:17:39;;;;;;;24.37;19.80;;;;;;;8.04;100.00;99948.03;5072499;28;20581;-71
2022/04/22 00:20:05;;;;;;;25.20;20.20;;;;;;;8.04;100.00;99952.69;5072909;28;20174;-72
2022/04/22 00:22:30;;;;;;;28.97;20.43;;;;;;;8.01;100.00;99948.66;5072031;28;20171;-73
2022/04/22 00:24:55;;;;;;;27.33;21.53;;;;;;;8.00;100.00;99941.59;5072848;28;20181;-73
2022/04/22 00:27:21;;;;;;;27.33;22.30;;;;;;;8.04;100.00;99944.50;5072601;28;20257;-72
2022/04/22 00:29:46;;;;;;;25.77;20.80;;;;;;;8.02;100.00;99947.53;5072586;28;20178;-74
2022/04/22 00:32:11;;;;;;;29.43;20.17;;;;;;;7.99;100.00;99947.34;5072772;28;20191;-73
2022/04/22 00:34:37;;;;;;;26.47;21.30;;;;;;;7.93;100.00;99941.22;5072916;28;20209;-71
2022/04/22 00:37:02;;;;;;;21.27;19.07;;;;;;;7.98;100.00;99934.88;5072181;28;20174;-73
2022/04/22 00:39:28;;;;;;;29.97;21.80;;;;;;;7.89;100.00;99929.34;5072442;28;20258;-74
2022/04/22 00:41:53;;;;;;;29.80;20.83;;;;;;;7.85;100.00;99935.72;5072536;28;20554;-72
2022/04/22 00:44:18;;;;;;;27.03;20.33;;;;;;;7.81;100.00;99931.97;5071318;28;20616;-71
2022/04/22 00:46:44;;;;;;;27.63;20.87;;;;;;;7.78;100.00;99925.22;5072369;28;20198;-72
2022/04/22 00:49:10;;;;;;;29.87;21.13;;;;;;;7.81;100.00;99924.63;5072041;28;20251;-71
2022/04/22 00:51:35;;;;;;;29.70;20.53;;;;;;;7.89;100.00;99925.81;5081199;28;20178;-71
2022/04/22 00:54:02;;;;;;;25.10;20.57;;;;;;;8.05;100.00;99921.63;5072914;28;20167;-72
2022/04/22 00:56:28;;;;;;;24.63;18.57;;;;;;;8.08;100.00;99926.47;5072411;28;20179;-71
2022/04/22 00:58:57;;;;;;;25.77;18.80;;;;;;;7.90;100.00;99927.41;5072394;28;20171;-71
2022/04/22 01:01:22;;;;;;;21.73;19.60;;;;;;;7.81;100.00;99921.09;5072164;28;20174;-71
2022/04/22 01:12:05;;;;;;;23.63;19.13;;;;;;;7.99;100.00;99909.28;5071467;28;20181;-72
2022/04/22 01:14:32;;;;;;;24.03;19.30;;;;;;;8.05;100.00;99911.56;5071639;28;20178;-72
2022/04/22 01:16:57;;;;;;;25.27;19.30;;;;;;;8.08;100.00;99912.84;5069696;28;20639;-71
2022/04/22 01:19:23;;;;;;;20.57;18.60;;;;;;;8.25;100.00;99918.47;5071524;28;20261;-72
2022/04/22 01:21:48;;;;;;;19.93;17.40;;;;;;;8.41;100.00;99909.94;5071434;28;20179;-71
2022/04/22 01:24:13;;;;;;;20.60;18.53;;;;;;;8.27;100.00;99912.69;5071215;28;20657;-71
2022/04/22 01:26:39;;;;;;;20.47;18.27;;;;;;;8.15;100.00;99907.81;5069796;28;20293;-72
2022/04/22 01:29:05;;;;;;;19.77;17.60;;;;;;;8.28;100.00;99906.94;5071105;28;20186;-72
2022/04/22 01:31:31;;;;;;;19.23;17.30;;;;;;;8.30;100.00;99898.47;5070936;28;20271;-71
2022/04/22 01:33:56;;;;;;;20.00;17.93;;;;;;;8.26;100.00;99901.00;5070912;28;20253;-72
2022/04/22 01:36:22;;;;;;;19.87;17.77;;;;;;;8.10;100.00;99910.66;5071038;28;20502;-71
2022/04/22 01:38:47;;;;;;;20.03;18.03;;;;;;;8.12;100.00;99904.91;5070727;28;20542;-71
2022/04/22 01:41:13;;;;;;;20.07;17.97;;;;;;;8.00;100.00;99903.53;5070976;28;20174;-71
2022/04/22 01:43:38;;;;;;;18.50;16.37;;;;;;;8.10;100.00;99898.94;5070933;28;20449;-71
2022/04/22 01:46:04;;;;;;;19.27;17.57;;;;;;;8.04;100.00;99901.78;5070724;28;20253;-71
2022/04/22 01:48:30;;;;;;;27.10;19.27;;;;;;;7.87;100.00;99900.84;5070435;28;20178;-72
2022/04/22 01:50:56;;;;;;;20.03;18.03;;;;;;;7.81;100.00;99896.63;5070753;28;20642;-71
2022/04/22 01:53:21;;;;;;;18.43;16.23;;;;;;;7.73;100.00;99904.41;5070714;28;20235;-71
2022/04/22 01:55:47;;;;;;;19.80;17.73;;;;;;;7.73;100.00;99896.25;5070959;28;20194;-72
2022/04/22 01:58:12;;;;;;;25.47;18.80;;;;;;;7.66;100.00;99892.31;5070336;28;20202;-71
2022/04/22 02:00:37;;;;;;;20.07;17.97;;;;;;;7.70;100.00;99888.69;5070583;28;20197;-72
2022/04/22 02:03:03;;;;;;;22.67;18.20;;;;;;;7.71;100.00;99879.44;5070527;28;20174;-72
2022/04/22 02:05:32;;;;;;;22.97;19.50;;;;;;;7.56;100.00;99881.69;5070511;28;20198;-71
2022/04/22 02:07:57;;;;;;;22.67;19.13;;;;;;;7.60;100.00;99888.13;5070381;28;20688;-72
2022/04/22 02:10:22;;;;;;;21.03;17.57;;;;;;;7.67;100.00;99873.00;5070482;28;20170;-72
2022/04/22 02:12:49;;;;;;;19.40;17.50;;;;;;;7.73;100.00;99873.69;5070497;28;20250;-71
2022/04/22 02:15:16;;;;;;;18.50;16.60;;;;;;;7.73;100.00;99876.41;5069997;28;20641;-74
2022/04/22 02:17:42;;;;;;;22.93;18.27;;;;;;;7.68;100.00;99868.38;5070210;28;20170;-71
2022/04/22 02:20:08;;;;;;;20.87;18.23;;;;;;;7.63;100.00;99866.56;5070368;28;20179;-71
2022/04/22 02:22:34;;;;;;;18.83;16.93;;;;;;;7.64;100.00;99865.44;5070264;28;20171;-71
2022/04/22 02:25:00;;;;;;;22.33;17.97;;;;;;;7.65;100.00;99868.97;5070135;28;20173;-72
2022/04/22 02:30:11;;;;;;;19.57;17.27;;;;;;;7.50;100.00;99870.09;5070517;28;20169;-73
2022/04/22 02:32:37;;;;;;;20.07;16.90;;;;;;;7.62;100.00;99870.38;5070780;28;20711;-72
2022/04/22 02:35:02;;;;;;;20.00;18.17;;;;;;;7.60;100.00;99860.94;5070265;28;20211;-71
2022/04/22 02:37:27;;;;;;;20.00;17.67;;;;;;;7.68;100.00;99862.94;5070221;28;20166;-74
2022/04/22 02:39:53;;;;;;;22.60;18.33;;;;;;;7.58;100.00;99857.72;5070184;28;20670;-73
2022/04/22 02:48:03;;;;;;;21.63;17.53;;;;;;;7.50;100.00;99851.06;4991921;28;20664;-71
2022/04/22 02:50:28;;;;;;;20.13;17.83;;;;;;;7.47;100.00;99852.50;5056670;28;20251;-76
2022/04/22 02:52:53;;;;;;;19.23;17.27;;;;;;;7.47;100.00;99846.25;5074151;28;20218;-75
2022/04/22 02:55:19;;;;;;;20.30;17.50;;;;;;;7.47;100.00;99860.66;5074033;28;20178;-71
2022/04/22 02:57:44;;;;;;;19.97;17.97;;;;;;;7.40;100.00;99862.19;5073864;28;20235;-72
2022/04/22 03:00:14;;;;;;;18.80;16.90;;;;;;;7.39;100.00;99853.22;5073930;28;20236;-72
2022/04/22 03:02:39;;;;;;;21.07;17.03;;;;;;;7.38;100.00;99858.97;5073767;28;20175;-71
2022/04/22 03:05:05;;;;;;;21.10;18.40;;;;;;;7.35;100.00;99852.22;5073603;28;20177;-71
2022/04/22 03:07:30;;;;;;;24.67;16.87;;;;;;;7.33;100.00;99840.03;5073741;28;20186;-71
2022/04/22 03:09:56;;;;;;;17.97;15.97;;;;;;;7.46;100.00;99840.03;5073733;28;20585;-72
2022/04/22 03:12:22;;;;;;;17.97;16.23;;;;;;;7.37;100.00;99830.16;5073736;28;20862;-74
2022/04/22 03:14:47;;;;;;;26.53;17.03;;;;;;;7.35;100.00;99835.91;5072210;28;20171;-71
2022/04/22 03:17:13;;;;;;;17.33;15.50;;;;;;;7.29;100.00;99829.00;5073217;28;20185;-72
2022/04/22 03:19:39;;;;;;;16.07;14.47;;;;;;;7.27;100.00;99844.00;5073792;28;20228;-71
2022/04/22 03:22:05;;;;;;;17.97;16.20;;;;;;;7.23;100.00;99837.53;5073547;28;20182;-71
2022/04/22 03:24:30;;;;;;;19.53;15.53;;;;;;;7.29;100.00;99841.78;5073530;28;20182;-71
2022/04/22 03:26:56;;;;;;;18.50;15.40;;;;;;;7.29;100.00;99844.47;5073396;28;20198;-71
2022/04/22 03:29:22;;;;;;;16.47;14.87;;;;;;;7.35;100.00;99848.69;5073700;28;20648;-72
2022/04/22 03:31:47;;;;;;;17.07;15.37;;;;;;;7.23;100.00;99840.25;5073140;28;20521;-73
2022/04/22 03:34:12;;;;;;;17.00;15.23;;;;;;;7.25;100.00;99843.50;5073151;28;20185;-73
2022/04/22 03:36:38;;;;;;;15.73;14.30;;;;;;;7.24;100.00;99831.81;5067716;28;20186;-72
2022/04/22 03:39:03;;;;;;;14.33;13.03;;;;;;;7.23;100.00;99829.38;5070453;28;20661;-73
2022/04/22 03:41:28;;;;;;;16.07;14.37;;;;;;;7.22;100.00;99830.50;5073013;28;20175;-72
2022/04/22 03:43:55;;;;;;;14.80;13.23;;;;;;;7.32;100.00;99816.69;5073071;28;20182;-72
2022/04/22 03:46:20;;;;;;;14.10;12.70;;;;;;;7.34;100.00;99826.16;5073008;28;20285;-72
2022/04/22 03:48:46;;;;;;;13.37;12.17;;;;;;;7.23;100.00;99826.66;5072950;28;20258;-72
2022/04/22 03:51:12;;;;;;;13.90;12.60;;;;;;;7.25;100.00;99822.56;5072444;28;20186;-71
2022/04/22 03:53:39;;;;;;;14.47;13.03;;;;;;;7.27;100.00;99830.41;5073048;28;20535;-71
2022/04/22 03:58:49;;;;;;;13.00;11.80;;;;;;;7.24;100.00;99834.53;5071656;28;20185;-71
2022/04/22 04:01:14;;;;;;;12.23;11.03;;;;;;;7.14;100.00;99832.03;5072184;28;20171;-71
2022/04/22 04:03:39;;;;;;;12.13;11.03;;;;;;;7.07;100.00;99842.47;5073034;28;20764;-73
2022/04/22 04:06:07;;;;;;;9.93;8.97;;;;;;;7.14;100.00;99843.69;5072641;28;20190;-72
2022/04/22 04:08:32;;;;;;;8.93;8.13;;;;;;;7.02;100.00;99845.31;5072559;28;20171;-72
2022/04/22 04:16:07;;;;;;;7.83;6.97;;;;;;;6.99;100.00;99854.06;5072806;28;20880;-73
2022/04/22 04:18:35;;;;;;;7.30;6.60;;;;;;;6.91;100.00;99849.31;5072247;28;20166;-71
2022/04/22 04:23:47;;;;;;;6.30;5.03;;;;;;;6.91;100.00;99839.28;5072466;28;20173;-71
2022/04/22 04:26:15;;;;;;;5.77;5.17;;;;;;;6.82;100.00;99849.25;5072063;28;20638;-71
2022/04/22 04:28:44;;;;;;;5.53;4.40;;;;;;;6.82;100.00;99851.97;5071987;28;20251;-71
2022/04/22 04:31:11;;;;;;;5.40;5.00;;;;;;;6.71;100.00;99854.06;5072121;28;20181;-71
2022/04/22 04:33:37;;;;;;;4.33;3.93;;;;;;;6.71;100.00;99856.75;5072477;28;20220;-71
2022/04/22 04:36:04;;;;;;;4.13;3.63;;;;;;;6.67;100.00;99857.66;5072213;28;20174;-72
2022/04/22 04:38:30;;;;;;;7.17;4.27;;;;;;;6.68;100.00;99856.56;5071810;28;20597;-71
2022/04/22 04:40:56;;;;;;;4.50;4.10;;;;;;;6.65;100.00;99859.84;5071840;28;20536;-73
2022/04/22 04:43:22;;;;;;;4.37;3.97;;;;;;;6.65;100.00;99862.56;5071939;28;20182;-71
2022/04/22 04:45:49;;;;;;;4.47;3.93;;;;;;;6.65;100.00;99857.13;5071777;28;20206;-71
2022/04/22 04:48:15;;;;;;;6.07;4.50;;;;;;;6.67;100.00;99860.38;5071698;28;20201;-71
2022/04/22 04:50:41;;;;;;;3.80;3.50;;;;;;;6.60;100.00;99855.34;5071840;28;20229;-72
2022/04/22 04:53:07;;;;;;;4.77;4.10;;;;;;;6.58;100.00;99846.69;5071877;28;20178;-73
2022/04/22 04:55:32;;;;;;;3.90;3.50;;;;;;;6.62;100.00;99852.31;5071783;28;20236;-72
2022/04/22 04:57:58;;;;;;;3.87;3.57;;;;;;;6.59;100.00;99848.31;5071463;28;20645;-72
2022/04/22 05:00:23;;;;;;;4.77;3.57;;;;;;;6.56;100.00;99838.84;5071857;28;20181;-71
2022/04/22 05:02:48;;;;;;;4.50;3.50;;;;;;;6.59;100.00;99840.16;5071299;28;20193;-71
2022/04/22 05:05:14;;;;;;;4.60;3.23;;;;;;;6.60;100.00;99838.25;5053392;28;20175;-71
2022/04/22 05:07:50;;;;;;;3.80;3.50;;;;;;;6.71;100.00;99828.81;5071466;28;20618;-72
2022/04/22 05:10:18;;;;;;;4.37;4.00;;;;;;;6.65;100.00;99832.72;5071092;28;20174;-73
2022/04/22 05:12:44;;;;;;;3.73;3.43;;;;;;;6.68;100.00;99834.84;5071338;28;20253;-72
2022/04/22 05:15:10;;;;;;;4.13;3.73;;;;;;;6.64;100.00;99836.53;5071569;28;20170;-72
2022/04/22 05:17:38;;;;;;;4.30;3.90;;;;;;;6.63;100.00;99826.78;5070998;28;20171;-72
2022/04/22 05:20:03;;;;;;;4.30;3.83;;;;;;;6.63;100.00;99833.00;5071241;28;20175;-71
2022/04/22 05:22:29;;;;;;;4.53;4.13;;;;;;;6.61;100.00;99823.56;5071140;28;20638;-72
2022/04/22 05:24:54;;;;;;;4.83;3.83;;;;;;;6.59;100.00;99823.88;5071561;28;20166;-72
2022/04/22 05:27:20;;;;;;;3.87;3.57;;;;;;;6.57;100.00;99823.38;5070696;28;20221;-73
2022/04/22 05:32:38;;;;;;;5.33;4.83;;;;;;;6.52;100.00;99823.47;5070933;28;20177;-71
2022/04/22 05:35:08;;;;;;;4.83;4.43;;;;;;;6.54;100.00;99813.13;5070895;28;20177;-71
2022/04/22 05:37:42;;;;;;;5.83;4.80;;;;;;;6.62;100.00;99819.75;5070611;28;20202;-72
2022/04/22 05:40:10;;;;;;;5.50;3.97;;;;;;;6.60;100.00;99821.97;5070813;28;20185;-71
2022/04/22 05:42:38;;;;;;;5.20;4.60;;;;;;;6.57;100.00;99826.09;5070666;28;20188;-71
2022/04/22 05:45:06;;;;;;;12.47;5.97;;;;;;;6.60;100.00;99832.81;5070517;28;20182;-71
2022/04/22 05:47:31;;;;;;;7.00;5.07;;;;;;;6.65;100.00;99832.72;5070614;28;20179;-71
2022/04/22 05:49:57;;;;;;;5.00;4.37;;;;;;;6.65;100.00;99838.94;5053043;28;20594;-71
2022/04/22 05:52:22;;;;;;;3.30;3.00;;;;;;;6.65;100.00;99840.84;5071044;28;20182;-71
2022/04/22 05:54:47;;;;;;;4.50;4.03;;;;;;;6.60;100.00;99846.38;5070661;28;20201;-72
2022/04/22 05:57:13;;;;;;;4.30;3.67;;;;;;;6.67;100.00;99847.63;5070321;28;20586;-71
2022/04/22 05:59:38;;;;;;;3.70;3.40;;;;;;;6.83;100.00;99840.00;5070563;28;20632;-71
2022/04/22 06:02:05;;;;;;;3.80;3.23;;;;;;;6.87;100.00;99838.28;5070260;28;20173;-72
2022/04/22 06:04:30;;;;;;;6.07;3.47;;;;;;;6.80;100.00;99844.13;5070533;28;20178;-73
2022/04/22 06:06:55;;;;;;;3.47;2.90;;;;;;;7.02;100.00;99845.31;5070273;28;20293;-72
2022/04/22 06:12:04;;;;;;;3.37;3.07;;;;;;;6.94;100.00;99848.72;5070705;28;20218;-71
2022/04/22 06:14:30;;;;;;;4.17;3.33;;;;;;;6.93;100.00;99845.19;5070514;28;20213;-71
2022/04/22 06:16:55;;;;;;;4.07;3.63;;;;;;;6.91;100.00;99841.19;5070602;28;20182;-72
2022/04/22 06:19:20;;;;;;;4.37;3.97;;;;;;;6.84;100.00;99834.25;5070185;28;20657;-72
2022/04/22 06:21:46;;;;;;;4.33;3.73;;;;;;;6.94;100.00;99838.66;5069604;28;20503;-71
2022/04/22 06:24:11;;;;;;;3.70;3.40;;;;;;;6.81;100.00;99839.50;5070376;28;20532;-71
2022/04/22 06:26:38;;;;;;;4.30;3.90;;;;;;;6.78;100.00;99832.72;5070146;28;20205;-70
2022/04/22 06:29:03;;;;;;;5.17;4.07;;;;;;;6.90;100.00;99839.56;5070329;28;20182;-70
2022/04/22 06:31:29;;;;;;;7.83;3.90;;;;;;;6.89;100.00;99841.47;5070312;28;20239;-71
2022/04/22 06:33:56;;;;;;;5.10;4.70;;;;;;;6.85;100.00;99833.16;5070249;28;20178;-71
2022/04/22 06:36:27;;;;;;;5.30;4.30;;;;;;;6.81;100.00;99821.28;5070366;28;20604;-70
2022/04/22 06:38:58;;;;;;;5.03;4.20;;;;;;;6.93;100.00;99819.94;5070339;28;20641;-71
2022/04/22 06:46:52;;;;;;;4.23;3.87;;;;;;;6.93;100.00;99828.91;5070029;28;20209;-71
2022/04/22 06:49:18;;;;;;;4.57;4.17;;;;;;;6.88;100.00;99830.94;5070303;28;20162;-71
2022/04/22 06:51:43;;;;;;;3.33;3.03;;;;;;;7.06;100.00;99835.44;5070285;28;20636;-71
2022/04/22 06:54:09;;;;;;;4.10;3.70;;;;;;;7.19;100.00;99825.69;5068594;28;20251;-71
2022/04/22 06:56:37;;;;;;;4.23;3.83;;;;;;;7.37;100.00;99824.72;5060954;28;20190;-71
2022/04/22 06:59:02;;;;;;;4.87;3.53;;;;;;;7.45;100.00;99826.75;5066602;28;20679;-70
2022/04/22 07:01:28;;;;;;;4.23;3.80;;;;;;;7.34;100.00;99822.63;5069180;28;20178;-73
2022/04/22 07:03:54;;;;;;;6.37;4.10;;;;;;;7.37;99.84;99819.28;5064761;28;20178;-74
2022/04/22 07:06:20;;;;;;;4.43;4.03;;;;;;;7.30;99.59;99822.44;5069927;28;20669;-74
2022/04/22 07:08:46;;;;;;;6.23;3.83;;;;;;;7.22;100.00;99820.44;5069652;28;20206;-77
2022/04/22 07:11:17;;;;;;;5.17;4.67;;;;;;;7.10;100.00;99823.69;5070034;28;20257;-75
2022/04/22 07:13:43;;;;;;;4.53;3.67;;;;;;;6.94;100.00;99816.13;5070117;28;20167;-74
2022/04/22 07:16:11;;;;;;;8.73;4.20;;;;;;;6.98;100.00;99814.44;5070148;28;20171;-73
2022/04/22 07:18:36;;;;;;;8.27;4.63;;;;;;;7.02;100.00;99818.16;5069924;28;20290;-75
2022/04/22 07:21:02;;;;;;;5.60;3.73;;;;;;;7.08;100.00;99823.16;5067904;28;20174;-73
2022/04/22 07:23:28;;;;;;;4.87;4.37;;;;;;;7.14;100.00;99816.53;5067068;28;20177;-72
2022/04/22 07:25:55;;;;;;;4.87;4.47;;;;;;;7.32;100.00;99813.97;5069802;28;20210;-76
2022/04/22 07:28:20;;;;;;;4.30;3.90;;;;;;;7.17;100.00;99815.13;5069491;28;20248;-71
2022/04/22 07:30:50;;;;;;;7.43;4.60;;;;;;;7.18;100.00;99819.44;5069609;28;20213;-74
2022/04/22 07:33:15;;;;;;;4.90;4.50;;;;;;;7.13;100.00;99825.78;5073053;28;20231;-71
2022/04/22 07:35:41;;;;;;;5.47;5.00;;;;;;;7.27;100.00;99812.19;5073422;28;20186;-71
2022/04/22 07:38:10;;;;;;;4.73;4.33;;;;;;;7.18;100.00;99803.13;5073186;28;20472;-77
2022/04/22 07:40:37;;;;;;;5.10;4.60;;;;;;;7.22;100.00;99823.16;5073286;28;20811;-77
2022/04/22 07:48:34;;;;;;;6.80;5.97;;;;;;;7.36;99.56;99813.06;5075230;28;20200;-72
2022/04/22 07:50:59;;;;;;;5.23;4.80;;;;;;;7.30;100.00;99817.00;5085086;28;20237;-71
2022/04/22 07:53:24;;;;;;;5.57;5.07;;;;;;;7.35;100.00;99805.22;5075700;28;20175;-74
2022/04/22 07:55:50;;;;;;;5.80;5.17;;;;;;;7.29;100.00;99807.25;5074316;28;20344;-70
2022/04/22 07:58:17;;;;;;;5.80;5.30;;;;;;;7.53;100.00;99811.63;5073849;28;20162;-71
2022/04/22 08:00:46;;;;;;;7.43;5.90;;;;;;;7.26;100.00;99807.06;5073095;28;20237;-64
2022/04/22 08:03:13;;;;;;;8.53;6.17;;;;;;;7.46;100.00;99812.84;5073049;28;20174;-70
2022/04/22 08:05:38;;;;;;;6.80;5.43;;;;;;;7.40;100.00;99819.50;5071998;28;20198;-71
2022/04/22 08:08:05;;;;;;;7.07;6.47;;;;;;;7.39;100.00;99811.66;5072509;28;20171;-70
2022/04/22 08:10:31;;;;;;;6.90;6.30;;;;;;;7.41;100.00;99820.31;5072511;28;20198;-70
2022/04/22 08:12:56;;;;;;;7.03;6.33;;;;;;;7.38;100.00;99820.94;5072491;28;20255;-71
2022/04/22 08:15:22;;;;;;;11.70;7.43;;;;;;;7.51;100.00;99830.94;5072681;28;20171;-71
2022/04/22 08:17:47;;;;;;;8.90;7.37;;;;;;;7.60;100.00;99822.88;5072572;28;20179;-70
2022/04/22 08:20:13;;;;;;;8.43;7.63;;;;;;;7.73;99.65;99825.56;5054541;28;20178;-72
2022/04/22 08:22:39;;;;;;;9.77;7.20;;;;;;;7.95;99.32;99827.47;5072423;28;20175;-72
2022/04/22 08:25:05;;;;;;;13.53;8.87;;;;;;;7.58;99.35;99825.09;5072296;28;20178;-71
2022/04/22 08:27:31;;;;;;;8.83;8.13;;;;;;;7.48;99.63;99828.84;5071907;28;20217;-71
2022/04/22 08:29:56;;;;;;;11.17;8.70;;;;;;;7.70;100.00;99834.31;5072234;28;20208;-72
2022/04/22 08:32:22;;;;;;;9.83;8.93;;;;;;;7.90;100.00;99837.66;5072605;28;20260;-71
2022/04/22 08:34:47;;;;;;;9.03;8.07;;;;;;;7.96;99.00;99836.47;5072180;28;20206;-73
2022/04/22 08:37:13;;;;;;;9.60;8.70;;;;;;;7.90;99.31;99829.50;5072072;28;20178;-71
2022/04/22 08:39:39;;;;;;;8.97;8.03;;;;;;;7.85;99.22;99832.38;5071955;28;20179;-71
2022/04/22 08:42:05;;;;;;;9.37;8.47;;;;;;;7.78;98.67;99826.53;5071885;28;20182;-70
2022/04/22 08:44:31;;;;;;;9.13;8.33;;;;;;;8.04;98.89;99832.97;5071347;28;20223;-71
2022/04/22 08:50:01;;;;;;;8.00;7.27;;;;;;;7.94;98.39;99828.56;5071881;28;20232;-70
2022/04/22 08:52:29;;;;;;;8.80;7.80;;;;;;;8.14;97.96;99823.78;5071859;28;20572;-71
2022/04/22 08:54:55;;;;;;;11.77;8.97;;;;;;;8.10;97.31;99826.31;5071626;28;20645;-71
2022/04/22 08:57:22;;;;;;;9.80;8.77;;;;;;;8.18;97.19;99816.59;5071054;28;20311;-71
2022/04/22 08:59:48;;;;;;;8.80;7.97;;;;;;;8.33;96.62;99818.91;5070315;28;20177;-71
2022/04/22 09:02:20;;;;;;;8.50;7.70;;;;;;;8.29;96.00;99824.19;5057782;28;20617;-71
2022/04/22 09:04:46;;;;;;;7.90;7.20;;;;;;;8.39;96.00;99827.78;5063111;28;20209;-71
2022/04/22 09:07:14;;;;;;;9.73;7.90;;;;;;;8.62;95.65;99837.50;5071653;28;20206;-80
2022/04/22 09:09:40;;;;;;;8.50;7.30;;;;;;;8.23;94.84;99830.06;5066930;28;20190;-71
2022/04/22 09:12:12;;;;;;;7.97;7.17;;;;;;;8.18;94.21;99828.28;5070187;28;20200;-71
2022/04/22 09:14:45;;;;;;;7.43;6.77;;;;;;;8.05;95.59;99829.13;5067904;28;20189;-72
2022/04/22 09:17:15;;;;;;;8.47;7.60;;;;;;;8.51;95.17;99830.72;5070935;28;20174;-71
2022/04/22 09:19:43;;;;;;;8.40;7.60;;;;;;;8.38;94.31;99818.00;5070278;28;20185;-71
2022/04/22 09:22:09;;;;;;;9.77;8.93;;;;;;;8.65;93.84;99818.63;5070672;28;20177;-72
2022/04/22 09:24:46;;;;;;;8.03;7.23;;;;;;;8.60;93.33;99813.31;5068779;28;20251;-72
2022/04/22 09:27:13;;;;;;;7.60;6.87;;;;;;;8.94;92.18;99815.38;5070012;28;20280;-71
2022/04/22 09:29:43;;;;;;;10.40;7.67;;;;;;;9.17;91.14;99804.38;5070433;28;20262;-71
2022/04/22 09:32:11;;;;;;;7.73;7.13;;;;;;;9.35;90.52;99810.66;5069440;28;20175;-72
2022/04/22 09:34:39;;;;;;;7.50;6.23;;;;;;;9.30;88.50;99808.91;5068028;28;20189;-71
2022/04/22 09:42:47;;;;;;;8.50;7.60;;;;;;;9.26;88.23;99802.50;5070647;28;20198;-72
2022/04/22 09:45:13;;;;;;;9.30;8.40;;;;;;;9.05;88.93;99804.19;5070555;28;20283;-74
2022/04/22 09:47:40;;;;;;;8.33;7.53;;;;;;;8.97;90.14;99799.50;5070596;28;20664;-72
2022/04/22 09:50:14;;;;;;;8.70;7.87;;;;;;;8.82;90.28;99803.47;5070665;28;20170;-71
2022/04/22 09:52:46;;;;;;;9.93;8.80;;;;;;;8.71;90.51;99797.53;5070578;28;20209;-72
2022/04/22 09:55:16;;;;;;;10.90;9.13;;;;;;;8.80;90.82;99790.16;5070506;28;20190;-71
2022/04/22 09:57:53;;;;;;;10.53;8.97;;;;;;;9.13;89.94;99797.97;5070349;28;20179;-73
2022/04/22 10:00:20;;;;;;;8.13;7.43;;;;;;;9.24;89.45;99799.25;5070416;28;20295;-74
2022/04/22 10:02:50;;;;;;;9.87;8.97;;;;;;;9.19;89.54;99796.69;5061281;28;20213;-72
2022/04/22 10:05:20;;;;;;;10.00;9.00;;;;;;;9.30;89.20;99795.28;5069450;28;20166;-71
2022/04/22 10:07:50;;;;;;;8.73;7.90;;;;;;;9.36;89.14;99793.97;5069573;28;20167;-71
2022/04/22 10:10:18;;;;;;;10.17;9.37;;;;;;;9.05;89.40;99790.56;5070103;28;20179;-71
2022/04/22 10:12:43;;;;;;;12.10;9.47;;;;;;;9.71;89.54;99803.00;5070598;28;20178;-71
2022/04/22 10:15:10;;;;;;;10.50;9.33;;;;;;;9.84;87.78;99812.16;5070673;28;20201;-73
2022/04/22 10:17:38;;;;;;;10.20;9.27;;;;;;;9.79;86.78;99804.91;5069941;28;20163;-72
2022/04/22 10:20:06;;;;;;;13.07;10.33;;;;;;;9.84;87.37;99803.97;5070334;28;20166;-72
2022/04/22 10:22:33;;;;;;;11.57;10.47;;;;;;;10.04;86.39;99805.22;5070279;28;20178;-72
2022/04/22 10:25:07;;;;;;;11.60;10.50;;;;;;;9.83;85.18;99796.88;5070363;28;20167;-76
2022/04/22 10:27:34;;;;;;;10.67;9.77;;;;;;;9.77;86.86;99804.44;5069918;28;20197;-72
2022/04/22 10:30:00;;;;;;;10.90;9.97;;;;;;;9.53;87.32;99795.91;5070092;28;20167;-71
2022/04/22 10:32:27;;;;;;;12.47;11.27;;;;;;;9.69;88.36;99805.25;5070137;28;20174;-72
2022/04/22 10:35:00;;;;;;;13.33;12.20;;;;;;;9.74;87.61;99793.38;5070055;28;20166;-71
2022/04/22 10:37:27;;;;;;;15.17;12.33;;;;;;;9.84;87.20;99790.31;5069798;28;20178;-71
2022/04/22 10:39:56;;;;;;;15.17;13.97;;;;;;;9.60;86.96;99790.00;5052205;28;20182;-71
2022/04/22 10:42:33;;;;;;;14.70;13.50;;;;;;;9.60;87.29;99776.38;5070001;28;20261;-71
2022/04/22 10:47:51;;;;;;;14.50;13.03;;;;;;;9.52;87.90;99778.75;5070076;28;20255;-72
2022/04/22 10:50:50;;;;;;;16.23;14.73;;;;;;;9.64;88.60;99780.03;5070185;28;20556;-75
2022/04/22 10:53:24;;;;;;;16.37;14.90;;;;;;;9.45;88.61;99778.44;5056143;28;20201;-71
2022/04/22 10:55:50;;;;;;;16.30;14.93;;;;;;;9.73;88.59;99772.66;5069954;28;20178;-72
2022/04/22 10:58:21;;;;;;;15.67;14.27;;;;;;;9.97;88.64;99769.41;5065066;28;20834;-72
2022/04/22 11:00:48;;;;;;;16.57;14.97;;;;;;;10.00;87.50;99760.59;5061219;28;20170;-74
2022/04/22 11:03:23;;;;;;;16.90;15.27;;;;;;;10.14;87.99;99764.75;5070051;28;20175;-71
2022/04/22 11:05:50;;;;;;;16.33;15.03;;;;;;;10.19;87.34;99776.59;5069877;28;20194;-72
2022/04/22 11:08:20;;;;;;;15.97;14.60;;;;;;;10.06;86.69;99768.28;5073308;28;20242;-75
2022/04/22 11:10:46;;;;;;;20.83;18.80;;;;;;;10.30;87.25;99767.78;5073506;28;20182;-73
2022/04/22 11:13:33;;;;;;;19.33;16.60;;;;;;;10.29;86.72;99757.19;5073756;28;20379;-73
2022/04/22 11:16:32;;;;;;;19.80;17.90;;;;;;;10.22;86.28;99762.34;5073622;28;20170;-71
2022/04/22 11:19:19;;;;;;;18.80;16.90;;;;;;;10.56;86.68;99759.50;5055339;28;20195;-74
2022/04/22 11:21:53;;;;;;;18.33;16.53;;;;;;;10.81;85.20;99752.28;5073375;28;20182;-74
2022/04/22 11:24:34;;;;;;;17.60;16.10;;;;;;;10.68;84.10;99748.66;5073471;28;20185;-73
2022/04/22 11:27:26;;;;;;;17.27;15.87;;;;;;;10.52;84.19;99741.34;5073521;28;20213;-72
2022/04/22 11:29:52;;;;;;;16.97;15.07;;;;;;;10.76;84.01;99740.75;5073978;28;20611;-72
2022/04/22 11:32:22;;;;;;;16.87;15.27;;;;;;;10.77;83.24;99742.34;5073412;28;20181;-75
2022/04/22 11:35:11;;;;;;;17.63;15.97;;;;;;;11.09;83.51;99746.34;5073228;28;20182;-72
2022/04/22 11:37:37;;;;;;;20.47;16.43;;;;;;;11.22;82.17;99745.28;5072718;28;20228;-73
2022/04/22 11:40:08;;;;;;;16.43;14.97;;;;;;;11.15;81.27;99740.34;5072268;28;20185;-72
2022/04/22 11:42:43;;;;;;;15.93;14.63;;;;;;;11.08;83.24;99745.53;5073205;28;20221;-71
2022/04/22 11:45:15;;;;;;;16.33;14.97;;;;;;;11.11;82.30;99739.41;5072956;28;20561;-73
2022/04/22 11:47:41;;;;;;;15.70;14.37;;;;;;;11.11;82.67;99744.88;5072817;28;20228;-73
2022/04/22 11:50:07;;;;;;;18.40;16.23;;;;;;;11.20;83.17;99736.63;5072986;28;20176;-73
2022/04/22 11:52:33;;;;;;;19.43;17.50;;;;;;;11.21;82.99;99733.56;5073443;28;20205;-72
2022/04/22 11:55:06;;;;;;;18.23;16.37;;;;;;;11.25;82.94;99725.47;5072861;28;20602;-72
2022/04/22 11:57:37;;;;;;;18.43;16.83;;;;;;;11.67;81.85;99734.47;5072915;28;20178;-72
2022/04/22 12:05:36;;;;;;;15.73;14.33;;;;;;;11.83;81.61;99731.91;5072916;28;20233;-72
2022/04/22 12:08:07;;;;;;;17.27;15.67;;;;;;;12.41;81.19;99739.00;5072425;28;20661;-72
2022/04/22 12:10:34;;;;;;;13.83;12.63;;;;;;;12.14;79.29;99725.94;5072285;28;20183;-73
2022/04/22 12:13:03;;;;;;;17.77;16.10;;;;;;;11.87;80.09;99724.66;5072853;28;20545;-72
2022/04/22 12:15:29;;;;;;;13.90;12.80;;;;;;;12.06;79.21;99722.19;5054754;28;20238;-71
2022/04/22 12:17:55;;;;;;;15.67;14.33;;;;;;;12.02;79.48;99717.75;5071335;28;20572;-73
2022/04/22 12:20:20;;;;;;;14.00;12.87;;;;;;;12.22;79.02;99719.59;5072125;28;20507;-74
2022/04/22 12:22:49;;;;;;;15.73;14.33;;;;;;;12.05;79.43;99723.31;5072465;28;20175;-72
2022/04/22 12:25:19;;;;;;;15.47;14.17;;;;;;;12.27;80.37;99719.34;5072379;28;20189;-72
2022/04/22 12:28:04;;;;;;;13.60;12.50;;;;;;;12.20;79.09;99714.47;5054265;28;20205;-72